Terminal Aerodrome Forecast
Issued by NWS

Home | Current Version | Previous Version | Text Only | Print | Product List | Glossary On
Versions: 1 2 3 4 5 6 7 8 9 10 11 12 13 14 15 16
761
FTUS45 KTFX 031738
TAFBZN
TAF
KBZN 031738Z 0318/0418 25008KT P6SM SCT060 BKN080
      TEMPO 0319/0322 6SM -SHSN BKN040
     FM040100 VRB05KT P6SM SCT050 BKN070=

USA.gov is the U.S. government's official web portal to all federal, state and local government web resources and services.